Weather at Smith Private Airport [CLOSED]

Public forecast

Using degrees Fahrenheit for public forecast. Weather courtesy of forecast.io.

Closest aviation weather report (METAR) to Smith Private Airport

Closest report is Salem Municipal Airport/McNary Field, 7.6 nm (14.1 km) SSW. Retrieved 2021/07/24 22:56 UTC (9 minutes ago):

KSLE 242256Z 35013G18KT 10SM CLR 33/12 A3001 RMK AO2 SLP159 T03330117

Closest aviation forecast (TAF) to Smith Private Airport

Closest forecast is Salem Municipal Airport/McNary Field, 7.6 nm (14.1 km) SSW. Retrieved 2021/07/24 18:27 UTC (5 hours ago):

TAF KSLE 241723Z 2418/2518 01010KT P6SM SKC FM242200 36011G20KT P6SM SKC FM250300 34010KT P6SM SKC FM250700 33004KT P6SM SKC